Parent, Canada
Current Conditions -  °F | °C
As of 7:00 AM on Sunday 21 Dec 2014 (Local Time) from CYRJ Reporting Station
Snow Showers Snow Showers  
Wind Chill:   Ceiling: 600
Heat Index:   Visibility: 6mi
Dew Point: -2°   Wind: 2mph
Humidity: 85%   Direction: 90°E
Pressure: 30.36"   Gusts: NA
Location:  47.92°N, 74.62°W
Report Text: CYRJ 211200Z 09002KT 6SM -SHSN OVC006 M17/M19 A3036 RMK SF8 SLP301
Loading
Personal Weather Stations






























Interactive Weather Map New forecast layout! Learn more

10-Day Weather Forecast

Advertisements
Track Severe Weather on mobile